sensor_id;sensor_type;location;lat;lon;timestamp;temperature;humidity
55634;DHT22;41504;53.162;6.788;2023-09-19T00:00:38;15.50;96.90
55634;DHT22;41504;53.162;6.788;2023-09-19T00:03:06;15.50;96.90
55634;DHT22;41504;53.162;6.788;2023-09-19T00:05:34;15.40;97.00
55634;DHT22;41504;53.162;6.788;2023-09-19T00:08:01;15.30;97.10
55634;DHT22;41504;53.162;6.788;2023-09-19T00:10:31;15.30;97.10
55634;DHT22;41504;53.162;6.788;2023-09-19T00:12:57;15.20;97.20
55634;DHT22;41504;53.162;6.788;2023-09-19T00:15:31;15.20;97.10
55634;DHT22;41504;53.162;6.788;2023-09-19T00:18:01;15.20;97.10
55634;DHT22;41504;53.162;6.788;2023-09-19T00:20:26;15.10;97.10
55634;DHT22;41504;53.162;6.788;2023-09-19T00:22:55;15.10;97.00
55634;DHT22;41504;53.162;6.788;2023-09-19T00:25:22;15.00;96.90
55634;DHT22;41504;53.162;6.788;2023-09-19T00:27:48;15.00;96.90
55634;DHT22;41504;53.162;6.788;2023-09-19T00:30:17;15.00;96.80
55634;DHT22;41504;53.162;6.788;2023-09-19T00:32:49;14.90;96.80
55634;DHT22;41504;53.162;6.788;2023-09-19T00:35:20;14.90;96.70
55634;DHT22;41504;53.162;6.788;2023-09-19T00:37:47;14.90;96.60
55634;DHT22;41504;53.162;6.788;2023-09-19T00:40:12;14.80;96.60
55634;DHT22;41504;53.162;6.788;2023-09-19T00:42:39;14.80;96.40
55634;DHT22;41504;53.162;6.788;2023-09-19T00:45:10;14.80;96.40
55634;DHT22;41504;53.162;6.788;2023-09-19T00:47:40;14.70;96.30
55634;DHT22;41504;53.162;6.788;2023-09-19T00:50:08;14.70;96.30
55634;DHT22;41504;53.162;6.788;2023-09-19T00:52:35;14.70;96.30
55634;DHT22;41504;53.162;6.788;2023-09-19T00:55:07;14.60;96.10
55634;DHT22;41504;53.162;6.788;2023-09-19T00:57:34;14.60;96.20
55634;DHT22;41504;53.162;6.788;2023-09-19T01:00:05;14.60;96.20
55634;DHT22;41504;53.162;6.788;2023-09-19T01:02:33;14.60;96.20
55634;DHT22;41504;53.162;6.788;2023-09-19T01:04:59;14.50;96.20
55634;DHT22;41504;53.162;6.788;2023-09-19T01:07:27;14.50;96.00
55634;DHT22;41504;53.162;6.788;2023-09-19T01:09:59;14.50;95.90
55634;DHT22;41504;53.162;6.788;2023-09-19T01:18:11;14.50;95.60
55634;DHT22;41504;53.162;6.788;2023-09-19T01:26:52;14.40;95.50
55634;DHT22;41504;53.162;6.788;2023-09-19T01:29:39;14.30;95.40
55634;DHT22;41504;53.162;6.788;2023-09-19T01:32:06;14.30;95.30
55634;DHT22;41504;53.162;6.788;2023-09-19T01:34:49;14.30;95.40
55634;DHT22;41504;53.162;6.788;2023-09-19T01:37:16;14.30;95.40
55634;DHT22;41504;53.162;6.788;2023-09-19T01:39:51;14.30;95.40
55634;DHT22;41504;53.162;6.788;2023-09-19T01:47:46;14.20;95.20
55634;DHT22;41504;53.162;6.788;2023-09-19T01:50:40;14.20;95.20
55634;DHT22;41504;53.162;6.788;2023-09-19T01:53:14;14.20;95.00
55634;DHT22;41504;53.162;6.788;2023-09-19T01:55:45;14.20;94.80
55634;DHT22;41504;53.162;6.788;2023-09-19T02:00:53;14.10;94.80
55634;DHT22;41504;53.162;6.788;2023-09-19T02:03:21;14.10;94.90
55634;DHT22;41504;53.162;6.788;2023-09-19T02:05:51;14.10;94.90
55634;DHT22;41504;53.162;6.788;2023-09-19T02:08:20;14.10;94.80
55634;DHT22;41504;53.162;6.788;2023-09-19T02:10:46;14.00;94.70
55634;DHT22;41504;53.162;6.788;2023-09-19T02:13:19;14.00;94.60
55634;DHT22;41504;53.162;6.788;2023-09-19T02:15:45;14.00;94.60
55634;DHT22;41504;53.162;6.788;2023-09-19T02:18:12;13.90;94.60
55634;DHT22;41504;53.162;6.788;2023-09-19T02:20:39;13.90;94.60
55634;DHT22;41504;53.162;6.788;2023-09-19T02:23:05;13.90;94.50
55634;DHT22;41504;53.162;6.788;2023-09-19T02:25:31;13.90;94.50
55634;DHT22;41504;53.162;6.788;2023-09-19T02:27:57;13.90;94.50
55634;DHT22;41504;53.162;6.788;2023-09-19T02:30:27;13.90;94.40
55634;DHT22;41504;53.162;6.788;2023-09-19T02:32:52;13.90;94.50
55634;DHT22;41504;53.162;6.788;2023-09-19T02:35:18;13.90;94.50
55634;DHT22;41504;53.162;6.788;2023-09-19T02:37:50;13.90;94.40
55634;DHT22;41504;53.162;6.788;2023-09-19T02:40:16;13.90;94.20
55634;DHT22;41504;53.162;6.788;2023-09-19T02:42:48;13.90;94.10
55634;DHT22;41504;53.162;6.788;2023-09-19T02:45:18;13.80;94.10
55634;DHT22;41504;53.162;6.788;2023-09-19T02:47:45;13.80;94.20
55634;DHT22;41504;53.162;6.788;2023-09-19T02:50:11;13.70;94.30
55634;DHT22;41504;53.162;6.788;2023-09-19T02:52:41;13.70;94.50
55634;DHT22;41504;53.162;6.788;2023-09-19T02:55:08;13.70;94.70
55634;DHT22;41504;53.162;6.788;2023-09-19T02:57:35;13.60;94.90
55634;DHT22;41504;53.162;6.788;2023-09-19T03:00:03;13.60;95.00
55634;DHT22;41504;53.162;6.788;2023-09-19T03:02:30;13.60;95.20
55634;DHT22;41504;53.162;6.788;2023-09-19T03:05:00;13.60;95.30
55634;DHT22;41504;53.162;6.788;2023-09-19T03:07:26;13.50;95.50
55634;DHT22;41504;53.162;6.788;2023-09-19T03:09:51;13.50;95.50
55634;DHT22;41504;53.162;6.788;2023-09-19T03:12:18;13.50;95.70
55634;DHT22;41504;53.162;6.788;2023-09-19T03:14:44;13.50;95.70
55634;DHT22;41504;53.162;6.788;2023-09-19T03:17:09;13.50;95.80
55634;DHT22;41504;53.162;6.788;2023-09-19T03:19:35;13.50;95.80
55634;DHT22;41504;53.162;6.788;2023-09-19T03:22:03;13.40;95.80
55634;DHT22;41504;53.162;6.788;2023-09-19T03:24:28;13.40;95.90
55634;DHT22;41504;53.162;6.788;2023-09-19T03:26:54;13.50;95.90
55634;DHT22;41504;53.162;6.788;2023-09-19T03:29:21;13.40;95.80
55634;DHT22;41504;53.162;6.788;2023-09-19T03:31:46;13.40;95.90
55634;DHT22;41504;53.162;6.788;2023-09-19T03:34:12;13.40;95.90
55634;DHT22;41504;53.162;6.788;2023-09-19T03:36:38;13.40;96.10
55634;DHT22;41504;53.162;6.788;2023-09-19T03:39:03;13.40;96.10
55634;DHT22;41504;53.162;6.788;2023-09-19T03:41:33;13.40;96.20
55634;DHT22;41504;53.162;6.788;2023-09-19T03:44:01;13.30;96.30
55634;DHT22;41504;53.162;6.788;2023-09-19T03:46:28;13.30;96.40
55634;DHT22;41504;53.162;6.788;2023-09-19T03:48:54;13.30;96.40
55634;DHT22;41504;53.162;6.788;2023-09-19T03:51:20;13.30;96.50
55634;DHT22;41504;53.162;6.788;2023-09-19T03:53:46;13.20;96.50
55634;DHT22;41504;53.162;6.788;2023-09-19T03:56:12;13.20;96.50
55634;DHT22;41504;53.162;6.788;2023-09-19T03:58:37;13.20;96.60
55634;DHT22;41504;53.162;6.788;2023-09-19T04:01:05;13.20;96.50
55634;DHT22;41504;53.162;6.788;2023-09-19T04:03:33;13.20;96.50
55634;DHT22;41504;53.162;6.788;2023-09-19T04:06:13;13.20;96.50
55634;DHT22;41504;53.162;6.788;2023-09-19T04:08:39;13.20;96.60
55634;DHT22;41504;53.162;6.788;2023-09-19T04:11:05;13.20;96.60
55634;DHT22;41504;53.162;6.788;2023-09-19T04:13:30;13.20;96.60
55634;DHT22;41504;53.162;6.788;2023-09-19T04:15:56;13.20;96.60
55634;DHT22;41504;53.162;6.788;2023-09-19T04:18:22;13.30;96.60
55634;DHT22;41504;53.162;6.788;2023-09-19T04:20:52;13.30;96.60
55634;DHT22;41504;53.162;6.788;2023-09-19T04:23:18;13.30;96.50
55634;DHT22;41504;53.162;6.788;2023-09-19T04:25:46;13.30;96.50
55634;DHT22;41504;53.162;6.788;2023-09-19T04:28:12;13.40;96.50
55634;DHT22;41504;53.162;6.788;2023-09-19T04:30:38;13.40;96.50
55634;DHT22;41504;53.162;6.788;2023-09-19T04:33:06;13.40;96.50
55634;DHT22;41504;53.162;6.788;2023-09-19T04:35:32;13.40;96.50
55634;DHT22;41504;53.162;6.788;2023-09-19T04:37:58;13.40;96.50
55634;DHT22;41504;53.162;6.788;2023-09-19T04:40:24;13.40;96.50
55634;DHT22;41504;53.162;6.788;2023-09-19T04:42:58;13.40;96.50
55634;DHT22;41504;53.162;6.788;2023-09-19T04:45:28;13.40;96.50
55634;DHT22;41504;53.162;6.788;2023-09-19T04:47:55;13.40;96.50
55634;DHT22;41504;53.162;6.788;2023-09-19T04:50:21;13.40;96.50
55634;DHT22;41504;53.162;6.788;2023-09-19T04:52:51;13.50;96.50
55634;DHT22;41504;53.162;6.788;2023-09-19T04:55:18;13.50;96.50
55634;DHT22;41504;53.162;6.788;2023-09-19T04:57:45;13.40;96.50
55634;DHT22;41504;53.162;6.788;2023-09-19T05:00:19;13.50;96.60
55634;DHT22;41504;53.162;6.788;2023-09-19T05:02:52;13.50;96.60
55634;DHT22;41504;53.162;6.788;2023-09-19T05:05:18;13.50;96.60
55634;DHT22;41504;53.162;6.788;2023-09-19T05:07:45;13.40;96.60
55634;DHT22;41504;53.162;6.788;2023-09-19T05:10:11;13.50;96.70
55634;DHT22;41504;53.162;6.788;2023-09-19T05:12:38;13.50;96.70
55634;DHT22;41504;53.162;6.788;2023-09-19T05:15:05;13.50;96.70
55634;DHT22;41504;53.162;6.788;2023-09-19T05:17:35;13.50;96.80
55634;DHT22;41504;53.162;6.788;2023-09-19T05:20:02;13.50;96.80
55634;DHT22;41504;53.162;6.788;2023-09-19T05:22:41;13.50;96.90
55634;DHT22;41504;53.162;6.788;2023-09-19T05:25:11;13.50;96.90
55634;DHT22;41504;53.162;6.788;2023-09-19T05:27:42;13.50;97.00
55634;DHT22;41504;53.162;6.788;2023-09-19T05:30:08;13.50;97.00
55634;DHT22;41504;53.162;6.788;2023-09-19T05:32:34;13.60;97.10
55634;DHT22;41504;53.162;6.788;2023-09-19T05:35:00;13.60;97.10
55634;DHT22;41504;53.162;6.788;2023-09-19T05:37:26;13.60;97.10
55634;DHT22;41504;53.162;6.788;2023-09-19T05:39:52;13.60;97.20
55634;DHT22;41504;53.162;6.788;2023-09-19T05:42:19;13.60;97.20
55634;DHT22;41504;53.162;6.788;2023-09-19T05:44:45;13.60;97.30
55634;DHT22;41504;53.162;6.788;2023-09-19T05:47:10;13.60;97.30
55634;DHT22;41504;53.162;6.788;2023-09-19T05:49:36;13.60;97.30
55634;DHT22;41504;53.162;6.788;2023-09-19T05:52:08;13.60;97.30
55634;DHT22;41504;53.162;6.788;2023-09-19T05:54:34;13.60;97.30
55634;DHT22;41504;53.162;6.788;2023-09-19T05:57:02;13.60;97.30
55634;DHT22;41504;53.162;6.788;2023-09-19T05:59:28;13.60;97.30
55634;DHT22;41504;53.162;6.788;2023-09-19T06:01:54;13.60;97.30
55634;DHT22;41504;53.162;6.788;2023-09-19T06:04:20;13.60;97.40
55634;DHT22;41504;53.162;6.788;2023-09-19T06:06:47;13.60;97.40
55634;DHT22;41504;53.162;6.788;2023-09-19T06:09:14;13.60;97.40
55634;DHT22;41504;53.162;6.788;2023-09-19T06:11:41;13.60;97.50
55634;DHT22;41504;53.162;6.788;2023-09-19T06:14:07;13.70;97.50
55634;DHT22;41504;53.162;6.788;2023-09-19T06:16:33;13.60;97.40
55634;DHT22;41504;53.162;6.788;2023-09-19T06:18:59;13.70;97.50
55634;DHT22;41504;53.162;6.788;2023-09-19T06:21:30;13.70;97.50
55634;DHT22;41504;53.162;6.788;2023-09-19T06:23:57;13.70;97.50
55634;DHT22;41504;53.162;6.788;2023-09-19T06:26:23;13.70;97.50
55634;DHT22;41504;53.162;6.788;2023-09-19T06:28:49;13.70;97.40
55634;DHT22;41504;53.162;6.788;2023-09-19T06:31:14;13.80;97.50
55634;DHT22;41504;53.162;6.788;2023-09-19T06:33:40;13.80;97.50
55634;DHT22;41504;53.162;6.788;2023-09-19T06:36:07;13.80;97.50
55634;DHT22;41504;53.162;6.788;2023-09-19T06:38:33;13.80;97.40
55634;DHT22;41504;53.162;6.788;2023-09-19T06:41:02;13.80;97.40
55634;DHT22;41504;53.162;6.788;2023-09-19T06:43:31;13.80;97.40
55634;DHT22;41504;53.162;6.788;2023-09-19T06:45:56;13.90;97.40
55634;DHT22;41504;53.162;6.788;2023-09-19T06:48:23;13.90;97.30
55634;DHT22;41504;53.162;6.788;2023-09-19T06:50:50;13.90;97.30
55634;DHT22;41504;53.162;6.788;2023-09-19T06:53:18;13.90;97.30
55634;DHT22;41504;53.162;6.788;2023-09-19T06:55:44;14.00;97.20
55634;DHT22;41504;53.162;6.788;2023-09-19T06:58:10;14.00;97.10
55634;DHT22;41504;53.162;6.788;2023-09-19T07:00:36;14.00;97.00
55634;DHT22;41504;53.162;6.788;2023-09-19T07:03:07;14.10;96.90
55634;DHT22;41504;53.162;6.788;2023-09-19T07:05:38;14.10;96.70
55634;DHT22;41504;53.162;6.788;2023-09-19T07:08:05;14.20;96.70
55634;DHT22;41504;53.162;6.788;2023-09-19T07:10:32;14.20;96.50
55634;DHT22;41504;53.162;6.788;2023-09-19T07:13:07;14.20;96.50
55634;DHT22;41504;53.162;6.788;2023-09-19T07:15:38;14.30;96.10
55634;DHT22;41504;53.162;6.788;2023-09-19T07:18:15;14.40;96.00
55634;DHT22;41504;53.162;6.788;2023-09-19T07:20:43;14.40;95.90
55634;DHT22;41504;53.162;6.788;2023-09-19T07:23:21;14.40;95.60
55634;DHT22;41504;53.162;6.788;2023-09-19T07:25:49;14.50;95.30
55634;DHT22;41504;53.162;6.788;2023-09-19T07:28:14;14.50;95.30
55634;DHT22;41504;53.162;6.788;2023-09-19T07:30:41;14.50;95.20
55634;DHT22;41504;53.162;6.788;2023-09-19T07:33:07;14.50;95.10
55634;DHT22;41504;53.162;6.788;2023-09-19T07:35:37;14.60;95.00
55634;DHT22;41504;53.162;6.788;2023-09-19T07:38:05;14.60;94.80
55634;DHT22;41504;53.162;6.788;2023-09-19T07:40:31;14.60;94.60
55634;DHT22;41504;53.162;6.788;2023-09-19T07:42:56;14.60;94.40
55634;DHT22;41504;53.162;6.788;2023-09-19T07:45:22;14.60;94.50
55634;DHT22;41504;53.162;6.788;2023-09-19T07:47:51;14.60;94.60
55634;DHT22;41504;53.162;6.788;2023-09-19T07:50:18;14.60;94.50
55634;DHT22;41504;53.162;6.788;2023-09-19T07:52:47;14.70;94.50
55634;DHT22;41504;53.162;6.788;2023-09-19T07:55:13;14.70;94.10
55634;DHT22;41504;53.162;6.788;2023-09-19T07:57:42;14.80;94.10
55634;DHT22;41504;53.162;6.788;2023-09-19T08:00:09;14.80;94.20
55634;DHT22;41504;53.162;6.788;2023-09-19T08:02:39;14.90;94.10
55634;DHT22;41504;53.162;6.788;2023-09-19T08:05:06;15.00;94.00
55634;DHT22;41504;53.162;6.788;2023-09-19T08:07:32;15.00;94.00
55634;DHT22;41504;53.162;6.788;2023-09-19T08:09:58;15.00;93.70
55634;DHT22;41504;53.162;6.788;2023-09-19T08:12:24;15.00;93.50
55634;DHT22;41504;53.162;6.788;2023-09-19T08:14:50;15.00;93.60
55634;DHT22;41504;53.162;6.788;2023-09-19T08:17:16;15.00;93.60
55634;DHT22;41504;53.162;6.788;2023-09-19T08:19:42;15.00;93.60
55634;DHT22;41504;53.162;6.788;2023-09-19T08:22:10;15.10;93.70
55634;DHT22;41504;53.162;6.788;2023-09-19T08:24:36;15.20;93.30
55634;DHT22;41504;53.162;6.788;2023-09-19T08:27:04;15.30;93.10
55634;DHT22;41504;53.162;6.788;2023-09-19T08:29:31;15.30;93.00
55634;DHT22;41504;53.162;6.788;2023-09-19T08:31:57;15.40;93.20
55634;DHT22;41504;53.162;6.788;2023-09-19T08:34:24;15.50;92.70
55634;DHT22;41504;53.162;6.788;2023-09-19T08:36:53;15.50;92.90
55634;DHT22;41504;53.162;6.788;2023-09-19T08:39:25;15.60;92.40
55634;DHT22;41504;53.162;6.788;2023-09-19T08:42:01;15.70;92.40
55634;DHT22;41504;53.162;6.788;2023-09-19T08:44:28;15.80;91.90
55634;DHT22;41504;53.162;6.788;2023-09-19T08:47:07;15.70;92.00
55634;DHT22;41504;53.162;6.788;2023-09-19T08:49:58;15.70;92.10
55634;DHT22;41504;53.162;6.788;2023-09-19T08:52:28;15.80;92.30
55634;DHT22;41504;53.162;6.788;2023-09-19T08:54:58;15.80;91.80
55634;DHT22;41504;53.162;6.788;2023-09-19T08:57:29;15.90;92.00
55634;DHT22;41504;53.162;6.788;2023-09-19T08:59:58;15.90;91.80
55634;DHT22;41504;53.162;6.788;2023-09-19T09:02:26;16.00;91.60
55634;DHT22;41504;53.162;6.788;2023-09-19T09:04:53;16.00;91.60
55634;DHT22;41504;53.162;6.788;2023-09-19T09:07:20;15.90;91.70
55634;DHT22;41504;53.162;6.788;2023-09-19T09:09:47;16.00;91.70
55634;DHT22;41504;53.162;6.788;2023-09-19T09:12:14;16.00;91.80
55634;DHT22;41504;53.162;6.788;2023-09-19T09:14:44;16.10;91.90
55634;DHT22;41504;53.162;6.788;2023-09-19T09:17:11;16.20;91.90
55634;DHT22;41504;53.162;6.788;2023-09-19T09:19:37;16.20;91.70
55634;DHT22;41504;53.162;6.788;2023-09-19T09:22:10;16.20;91.80
55634;DHT22;41504;53.162;6.788;2023-09-19T09:24:36;16.30;91.40
55634;DHT22;41504;53.162;6.788;2023-09-19T09:27:05;16.30;91.50
55634;DHT22;41504;53.162;6.788;2023-09-19T09:29:49;16.30;91.40
55634;DHT22;41504;53.162;6.788;2023-09-19T09:32:22;16.30;91.20
55634;DHT22;41504;53.162;6.788;2023-09-19T09:34:49;16.30;91.20
55634;DHT22;41504;53.162;6.788;2023-09-19T09:37:16;16.30;91.30
55634;DHT22;41504;53.162;6.788;2023-09-19T09:42:31;16.40;91.60
55634;DHT22;41504;53.162;6.788;2023-09-19T09:47:48;16.60;91.00
55634;DHT22;41504;53.162;6.788;2023-09-19T09:50:32;16.70;90.90
55634;DHT22;41504;53.162;6.788;2023-09-19T09:53:39;16.90;90.60
55634;DHT22;41504;53.162;6.788;2023-09-19T09:56:09;17.10;89.30
55634;DHT22;41504;53.162;6.788;2023-09-19T09:58:38;17.10;88.00
55634;DHT22;41504;53.162;6.788;2023-09-19T10:01:14;17.10;88.20
55634;DHT22;41504;53.162;6.788;2023-09-19T10:03:42;17.20;88.80
55634;DHT22;41504;53.162;6.788;2023-09-19T10:06:18;17.20;88.40
55634;DHT22;41504;53.162;6.788;2023-09-19T10:11:46;17.20;86.90
55634;DHT22;41504;53.162;6.788;2023-09-19T10:14:25;17.20;87.50
55634;DHT22;41504;53.162;6.788;2023-09-19T10:16:58;17.20;87.10
55634;DHT22;41504;53.162;6.788;2023-09-19T10:20:07;17.20;87.00
55634;DHT22;41504;53.162;6.788;2023-09-19T10:22:46;17.30;86.10
55634;DHT22;41504;53.162;6.788;2023-09-19T10:25:24;17.40;84.30
55634;DHT22;41504;53.162;6.788;2023-09-19T10:27:52;17.40;84.10
55634;DHT22;41504;53.162;6.788;2023-09-19T10:30:20;17.40;82.80
55634;DHT22;41504;53.162;6.788;2023-09-19T10:32:47;17.40;83.30
55634;DHT22;41504;53.162;6.788;2023-09-19T10:35:17;17.40;84.50
55634;DHT22;41504;53.162;6.788;2023-09-19T10:37:44;17.50;83.80
55634;DHT22;41504;53.162;6.788;2023-09-19T10:40:16;17.60;83.20
55634;DHT22;41504;53.162;6.788;2023-09-19T10:42:45;17.50;84.10
55634;DHT22;41504;53.162;6.788;2023-09-19T10:45:12;17.50;84.50
55634;DHT22;41504;53.162;6.788;2023-09-19T10:47:41;17.50;84.50
55634;DHT22;41504;53.162;6.788;2023-09-19T10:50:09;17.60;84.60
55634;DHT22;41504;53.162;6.788;2023-09-19T10:52:43;17.70;84.70
55634;DHT22;41504;53.162;6.788;2023-09-19T10:55:18;17.80;83.50
55634;DHT22;41504;53.162;6.788;2023-09-19T10:57:45;17.80;83.60
55634;DHT22;41504;53.162;6.788;2023-09-19T11:00:12;17.80;83.80
55634;DHT22;41504;53.162;6.788;2023-09-19T11:03:16;17.90;82.90
55634;DHT22;41504;53.162;6.788;2023-09-19T11:06:02;17.90;83.30
55634;DHT22;41504;53.162;6.788;2023-09-19T11:09:02;18.00;83.30
55634;DHT22;41504;53.162;6.788;2023-09-19T11:11:48;18.10;82.00
55634;DHT22;41504;53.162;6.788;2023-09-19T11:30:36;18.10;80.60
55634;DHT22;41504;53.162;6.788;2023-09-19T11:33:19;18.00;81.00
55634;DHT22;41504;53.162;6.788;2023-09-19T11:36:16;18.10;80.30
55634;DHT22;41504;53.162;6.788;2023-09-19T11:43:46;18.10;80.00
55634;DHT22;41504;53.162;6.788;2023-09-19T11:46:12;18.30;79.80
55634;DHT22;41504;53.162;6.788;2023-09-19T11:48:43;18.40;79.70
55634;DHT22;41504;53.162;6.788;2023-09-19T11:51:14;18.50;78.40
55634;DHT22;41504;53.162;6.788;2023-09-19T11:53:58;18.40;78.70
55634;DHT22;41504;53.162;6.788;2023-09-19T11:56:27;18.30;78.90
55634;DHT22;41504;53.162;6.788;2023-09-19T11:58:55;18.30;79.30
55634;DHT22;41504;53.162;6.788;2023-09-19T12:01:28;18.30;79.40
55634;DHT22;41504;53.162;6.788;2023-09-19T12:03:57;18.30;79.30
55634;DHT22;41504;53.162;6.788;2023-09-19T12:06:24;18.30;80.00
55634;DHT22;41504;53.162;6.788;2023-09-19T12:08:51;18.30;79.90
55634;DHT22;41504;53.162;6.788;2023-09-19T12:11:19;18.40;79.70
55634;DHT22;41504;53.162;6.788;2023-09-19T12:13:47;18.30;79.80
55634;DHT22;41504;53.162;6.788;2023-09-19T12:16:19;18.40;79.10
55634;DHT22;41504;53.162;6.788;2023-09-19T12:18:48;18.30;79.10
55634;DHT22;41504;53.162;6.788;2023-09-19T12:21:31;18.30;80.00
55634;DHT22;41504;53.162;6.788;2023-09-19T12:24:04;18.30;79.80
55634;DHT22;41504;53.162;6.788;2023-09-19T12:26:40;18.30;79.60
55634;DHT22;41504;53.162;6.788;2023-09-19T12:29:13;18.30;79.60
55634;DHT22;41504;53.162;6.788;2023-09-19T12:31:50;18.30;79.80
55634;DHT22;41504;53.162;6.788;2023-09-19T12:34:35;18.20;80.00
55634;DHT22;41504;53.162;6.788;2023-09-19T12:37:13;18.10;80.40
55634;DHT22;41504;53.162;6.788;2023-09-19T12:39:53;18.00;80.80
55634;DHT22;41504;53.162;6.788;2023-09-19T12:42:24;18.00;81.30
55634;DHT22;41504;53.162;6.788;2023-09-19T12:44:54;17.90;81.30
55634;DHT22;41504;53.162;6.788;2023-09-19T12:47:24;18.00;81.10
55634;DHT22;41504;53.162;6.788;2023-09-19T12:50:06;18.00;81.10
55634;DHT22;41504;53.162;6.788;2023-09-19T12:52:37;18.10;81.40
55634;DHT22;41504;53.162;6.788;2023-09-19T12:55:03;18.10;81.10
55634;DHT22;41504;53.162;6.788;2023-09-19T12:57:30;18.10;81.00
55634;DHT22;41504;53.162;6.788;2023-09-19T13:00:01;18.20;81.20
55634;DHT22;41504;53.162;6.788;2023-09-19T13:02:28;18.10;80.80
55634;DHT22;41504;53.162;6.788;2023-09-19T13:04:54;18.10;81.40
55634;DHT22;41504;53.162;6.788;2023-09-19T13:07:43;18.20;81.30
55634;DHT22;41504;53.162;6.788;2023-09-19T13:10:11;18.10;81.40
55634;DHT22;41504;53.162;6.788;2023-09-19T13:12:38;18.10;81.70
55634;DHT22;41504;53.162;6.788;2023-09-19T13:15:11;18.10;81.60
55634;DHT22;41504;53.162;6.788;2023-09-19T13:17:44;18.00;81.70
55634;DHT22;41504;53.162;6.788;2023-09-19T13:20:30;18.00;82.10
55634;DHT22;41504;53.162;6.788;2023-09-19T13:23:04;17.90;82.50
55634;DHT22;41504;53.162;6.788;2023-09-19T13:25:35;17.90;81.60
55634;DHT22;41504;53.162;6.788;2023-09-19T13:28:05;17.90;81.60
55634;DHT22;41504;53.162;6.788;2023-09-19T13:30:31;17.90;81.90
55634;DHT22;41504;53.162;6.788;2023-09-19T13:33:10;17.80;82.00
55634;DHT22;41504;53.162;6.788;2023-09-19T13:35:36;17.80;82.10
55634;DHT22;41504;53.162;6.788;2023-09-19T13:38:04;17.80;82.50
55634;DHT22;41504;53.162;6.788;2023-09-19T13:40:29;17.80;82.90
55634;DHT22;41504;53.162;6.788;2023-09-19T13:42:56;17.80;83.20
55634;DHT22;41504;53.162;6.788;2023-09-19T13:45:22;17.80;83.60
55634;DHT22;41504;53.162;6.788;2023-09-19T13:47:50;17.80;83.00
55634;DHT22;41504;53.162;6.788;2023-09-19T13:50:16;17.80;83.20
55634;DHT22;41504;53.162;6.788;2023-09-19T13:52:48;17.90;83.10
55634;DHT22;41504;53.162;6.788;2023-09-19T13:55:17;17.90;82.60
55634;DHT22;41504;53.162;6.788;2023-09-19T13:57:46;17.90;82.80
55634;DHT22;41504;53.162;6.788;2023-09-19T14:00:16;17.90;83.10
55634;DHT22;41504;53.162;6.788;2023-09-19T14:02:43;17.90;83.50
55634;DHT22;41504;53.162;6.788;2023-09-19T14:05:10;17.90;83.50
55634;DHT22;41504;53.162;6.788;2023-09-19T14:07:41;17.80;84.00
55634;DHT22;41504;53.162;6.788;2023-09-19T14:10:07;17.80;84.60
55634;DHT22;41504;53.162;6.788;2023-09-19T14:12:39;17.80;84.90
55634;DHT22;41504;53.162;6.788;2023-09-19T14:15:08;17.90;84.60
55634;DHT22;41504;53.162;6.788;2023-09-19T14:17:34;18.00;84.30
55634;DHT22;41504;53.162;6.788;2023-09-19T14:20:00;18.00;84.30
55634;DHT22;41504;53.162;6.788;2023-09-19T14:22:26;18.00;84.80
55634;DHT22;41504;53.162;6.788;2023-09-19T14:24:51;18.00;84.60
55634;DHT22;41504;53.162;6.788;2023-09-19T14:27:18;18.00;84.70
55634;DHT22;41504;53.162;6.788;2023-09-19T14:29:44;18.00;84.80
55634;DHT22;41504;53.162;6.788;2023-09-19T14:32:10;18.00;85.00
55634;DHT22;41504;53.162;6.788;2023-09-19T14:34:36;18.00;84.50
55634;DHT22;41504;53.162;6.788;2023-09-19T14:37:07;18.00;84.20
55634;DHT22;41504;53.162;6.788;2023-09-19T14:39:33;18.00;84.10
55634;DHT22;41504;53.162;6.788;2023-09-19T14:41:59;18.00;84.30
55634;DHT22;41504;53.162;6.788;2023-09-19T14:44:25;18.00;83.80
55634;DHT22;41504;53.162;6.788;2023-09-19T14:46:50;18.00;84.10
55634;DHT22;41504;53.162;6.788;2023-09-19T14:49:16;18.00;83.80
55634;DHT22;41504;53.162;6.788;2023-09-19T14:51:42;18.00;83.50
55634;DHT22;41504;53.162;6.788;2023-09-19T14:54:13;18.10;83.60
55634;DHT22;41504;53.162;6.788;2023-09-19T14:56:42;18.10;84.40
55634;DHT22;41504;53.162;6.788;2023-09-19T14:59:08;18.10;83.50
55634;DHT22;41504;53.162;6.788;2023-09-19T15:01:36;18.10;83.60
55634;DHT22;41504;53.162;6.788;2023-09-19T15:04:02;18.10;83.80
55634;DHT22;41504;53.162;6.788;2023-09-19T15:06:28;18.20;84.10
55634;DHT22;41504;53.162;6.788;2023-09-19T15:08:54;18.20;83.10
55634;DHT22;41504;53.162;6.788;2023-09-19T15:11:19;18.10;83.70
55634;DHT22;41504;53.162;6.788;2023-09-19T15:13:46;18.10;83.90
55634;DHT22;41504;53.162;6.788;2023-09-19T15:16:13;18.10;84.20
55634;DHT22;41504;53.162;6.788;2023-09-19T15:18:44;18.10;83.80
55634;DHT22;41504;53.162;6.788;2023-09-19T15:21:13;18.10;83.50
55634;DHT22;41504;53.162;6.788;2023-09-19T15:23:41;18.20;83.50
55634;DHT22;41504;53.162;6.788;2023-09-19T15:26:10;18.10;83.80
55634;DHT22;41504;53.162;6.788;2023-09-19T15:28:37;18.10;84.30
55634;DHT22;41504;53.162;6.788;2023-09-19T15:31:08;18.10;85.00
55634;DHT22;41504;53.162;6.788;2023-09-19T15:33:38;18.00;85.40
55634;DHT22;41504;53.162;6.788;2023-09-19T15:36:08;17.80;86.40
55634;DHT22;41504;53.162;6.788;2023-09-19T15:38:59;17.80;87.40
55634;DHT22;41504;53.162;6.788;2023-09-19T15:41:30;17.70;87.70
55634;DHT22;41504;53.162;6.788;2023-09-19T15:43:57;17.60;89.00
55634;DHT22;41504;53.162;6.788;2023-09-19T15:46:25;17.50;89.60
55634;DHT22;41504;53.162;6.788;2023-09-19T15:48:53;17.50;90.20
55634;DHT22;41504;53.162;6.788;2023-09-19T15:51:18;17.50;90.40
55634;DHT22;41504;53.162;6.788;2023-09-19T15:53:47;17.40;90.60
55634;DHT22;41504;53.162;6.788;2023-09-19T15:56:14;17.40;90.70
55634;DHT22;41504;53.162;6.788;2023-09-19T15:58:40;17.30;90.70
55634;DHT22;41504;53.162;6.788;2023-09-19T16:01:10;17.30;90.60
55634;DHT22;41504;53.162;6.788;2023-09-19T16:03:39;17.40;90.60
55634;DHT22;41504;53.162;6.788;2023-09-19T16:06:13;17.40;90.60
55634;DHT22;41504;53.162;6.788;2023-09-19T16:08:44;17.40;90.50
55634;DHT22;41504;53.162;6.788;2023-09-19T16:11:11;17.40;90.50
55634;DHT22;41504;53.162;6.788;2023-09-19T16:13:38;17.40;90.40
55634;DHT22;41504;53.162;6.788;2023-09-19T16:16:04;17.50;90.30
55634;DHT22;41504;53.162;6.788;2023-09-19T16:18:30;17.40;90.40
55634;DHT22;41504;53.162;6.788;2023-09-19T16:21:03;17.40;90.50
55634;DHT22;41504;53.162;6.788;2023-09-19T16:23:29;17.50;90.50
55634;DHT22;41504;53.162;6.788;2023-09-19T16:26:04;17.50;90.60
55634;DHT22;41504;53.162;6.788;2023-09-19T16:28:32;17.50;90.50
55634;DHT22;41504;53.162;6.788;2023-09-19T16:31:00;17.40;90.80
55634;DHT22;41504;53.162;6.788;2023-09-19T16:33:28;17.40;90.90